sensor_id;sensor_type;location;lat;lon;timestamp;temperature;humidity
21259;DHT22;10787;53.364;-1.480;2023-04-24T00:01:47;7.90;1.00
21259;DHT22;10787;53.364;-1.480;2023-04-24T00:04:31;7.90;1.00
21259;DHT22;10787;53.364;-1.480;2023-04-24T00:07:16;7.80;1.00
21259;DHT22;10787;53.364;-1.480;2023-04-24T00:10:01;7.80;1.00
21259;DHT22;10787;53.364;-1.480;2023-04-24T00:12:45;7.60;1.00
21259;DHT22;10787;53.364;-1.480;2023-04-24T00:15:30;7.50;1.00
21259;DHT22;10787;53.364;-1.480;2023-04-24T00:18:15;7.40;1.00
21259;DHT22;10787;53.364;-1.480;2023-04-24T00:20:59;7.40;1.00
21259;DHT22;10787;53.364;-1.480;2023-04-24T00:23:44;7.40;1.00
21259;DHT22;10787;53.364;-1.480;2023-04-24T00:26:28;7.40;1.00
21259;DHT22;10787;53.364;-1.480;2023-04-24T00:29:13;7.40;1.00
21259;DHT22;10787;53.364;-1.480;2023-04-24T00:31:58;7.30;1.00
21259;DHT22;10787;53.364;-1.480;2023-04-24T00:34:42;7.20;1.00
21259;DHT22;10787;53.364;-1.480;2023-04-24T00:37:27;7.20;1.00
21259;DHT22;10787;53.364;-1.480;2023-04-24T00:40:11;7.10;1.00
21259;DHT22;10787;53.364;-1.480;2023-04-24T00:42:56;7.10;1.00
21259;DHT22;10787;53.364;-1.480;2023-04-24T00:45:41;7.20;1.00
21259;DHT22;10787;53.364;-1.480;2023-04-24T00:48:26;7.20;1.00
21259;DHT22;10787;53.364;-1.480;2023-04-24T00:51:11;7.10;1.00
21259;DHT22;10787;53.364;-1.480;2023-04-24T00:53:56;7.00;1.00
21259;DHT22;10787;53.364;-1.480;2023-04-24T00:56:41;7.00;1.00
21259;DHT22;10787;53.364;-1.480;2023-04-24T00:59:25;6.90;1.00
21259;DHT22;10787;53.364;-1.480;2023-04-24T01:02:11;6.90;1.00
21259;DHT22;10787;53.364;-1.480;2023-04-24T01:04:55;6.90;1.00
21259;DHT22;10787;53.364;-1.480;2023-04-24T01:07:45;6.90;1.00
21259;DHT22;10787;53.364;-1.480;2023-04-24T01:10:31;6.80;1.00
21259;DHT22;10787;53.364;-1.480;2023-04-24T01:13:18;6.80;1.00
21259;DHT22;10787;53.364;-1.480;2023-04-24T01:16:02;6.60;1.00
21259;DHT22;10787;53.364;-1.480;2023-04-24T01:18:47;6.60;1.00
21259;DHT22;10787;53.364;-1.480;2023-04-24T01:21:35;6.50;1.00
21259;DHT22;10787;53.364;-1.480;2023-04-24T01:24:21;6.50;1.00
21259;DHT22;10787;53.364;-1.480;2023-04-24T01:27:05;6.60;1.00
21259;DHT22;10787;53.364;-1.480;2023-04-24T01:29:49;6.60;1.00
21259;DHT22;10787;53.364;-1.480;2023-04-24T01:32:36;6.60;1.00
21259;DHT22;10787;53.364;-1.480;2023-04-24T01:35:20;6.60;1.00
21259;DHT22;10787;53.364;-1.480;2023-04-24T01:38:05;6.60;1.00
21259;DHT22;10787;53.364;-1.480;2023-04-24T01:40:50;6.50;1.00
21259;DHT22;10787;53.364;-1.480;2023-04-24T01:43:35;6.40;1.00
21259;DHT22;10787;53.364;-1.480;2023-04-24T01:46:20;6.40;1.00
21259;DHT22;10787;53.364;-1.480;2023-04-24T01:49:04;6.30;1.00
21259;DHT22;10787;53.364;-1.480;2023-04-24T01:51:48;6.20;1.00
21259;DHT22;10787;53.364;-1.480;2023-04-24T01:54:33;6.20;1.00
21259;DHT22;10787;53.364;-1.480;2023-04-24T01:57:18;6.10;1.00
21259;DHT22;10787;53.364;-1.480;2023-04-24T02:00:03;6.10;1.00
21259;DHT22;10787;53.364;-1.480;2023-04-24T02:02:48;6.00;1.00
21259;DHT22;10787;53.364;-1.480;2023-04-24T02:05:32;6.00;1.00
21259;DHT22;10787;53.364;-1.480;2023-04-24T02:08:18;6.00;1.00
21259;DHT22;10787;53.364;-1.480;2023-04-24T02:11:03;5.90;1.00
21259;DHT22;10787;53.364;-1.480;2023-04-24T02:13:47;5.90;1.00
21259;DHT22;10787;53.364;-1.480;2023-04-24T02:16:31;5.90;1.00
21259;DHT22;10787;53.364;-1.480;2023-04-24T02:19:17;6.00;1.00
21259;DHT22;10787;53.364;-1.480;2023-04-24T02:22:01;6.00;1.00
21259;DHT22;10787;53.364;-1.480;2023-04-24T02:24:45;5.90;1.00
21259;DHT22;10787;53.364;-1.480;2023-04-24T02:27:29;5.90;1.00
21259;DHT22;10787;53.364;-1.480;2023-04-24T02:30:13;5.90;1.00
21259;DHT22;10787;53.364;-1.480;2023-04-24T02:32:58;5.80;1.00
21259;DHT22;10787;53.364;-1.480;2023-04-24T02:35:42;5.80;1.00
21259;DHT22;10787;53.364;-1.480;2023-04-24T02:38:26;5.80;1.00
21259;DHT22;10787;53.364;-1.480;2023-04-24T02:41:10;5.80;1.00
21259;DHT22;10787;53.364;-1.480;2023-04-24T02:43:54;5.90;1.00
21259;DHT22;10787;53.364;-1.480;2023-04-24T02:46:39;5.90;1.00
21259;DHT22;10787;53.364;-1.480;2023-04-24T02:49:25;5.80;1.00
21259;DHT22;10787;53.364;-1.480;2023-04-24T02:52:10;5.80;1.00
21259;DHT22;10787;53.364;-1.480;2023-04-24T02:54:54;5.70;1.00
21259;DHT22;10787;53.364;-1.480;2023-04-24T02:57:39;5.80;1.00
21259;DHT22;10787;53.364;-1.480;2023-04-24T03:00:23;5.80;1.00
21259;DHT22;10787;53.364;-1.480;2023-04-24T03:03:08;5.90;1.00
21259;DHT22;10787;53.364;-1.480;2023-04-24T03:05:52;5.90;1.00
21259;DHT22;10787;53.364;-1.480;2023-04-24T03:08:37;5.90;1.00
21259;DHT22;10787;53.364;-1.480;2023-04-24T03:11:21;5.90;1.00
21259;DHT22;10787;53.364;-1.480;2023-04-24T03:14:05;6.00;1.00
21259;DHT22;10787;53.364;-1.480;2023-04-24T03:16:50;6.00;1.00
21259;DHT22;10787;53.364;-1.480;2023-04-24T03:19:34;6.00;1.00
21259;DHT22;10787;53.364;-1.480;2023-04-24T03:22:18;6.00;1.00
21259;DHT22;10787;53.364;-1.480;2023-04-24T03:25:02;6.00;1.00
21259;DHT22;10787;53.364;-1.480;2023-04-24T03:27:47;6.00;1.00
21259;DHT22;10787;53.364;-1.480;2023-04-24T03:30:31;6.00;1.00
21259;DHT22;10787;53.364;-1.480;2023-04-24T03:33:15;6.00;1.00
21259;DHT22;10787;53.364;-1.480;2023-04-24T03:35:59;6.10;1.00
21259;DHT22;10787;53.364;-1.480;2023-04-24T03:38:43;6.10;1.00
21259;DHT22;10787;53.364;-1.480;2023-04-24T03:41:27;6.10;1.00
21259;DHT22;10787;53.364;-1.480;2023-04-24T03:44:12;6.10;1.00
21259;DHT22;10787;53.364;-1.480;2023-04-24T03:46:58;6.10;1.00
21259;DHT22;10787;53.364;-1.480;2023-04-24T03:49:42;6.10;1.00
21259;DHT22;10787;53.364;-1.480;2023-04-24T03:52:26;6.00;1.00
21259;DHT22;10787;53.364;-1.480;2023-04-24T03:55:10;6.10;1.00
21259;DHT22;10787;53.364;-1.480;2023-04-24T03:57:57;6.10;1.00
21259;DHT22;10787;53.364;-1.480;2023-04-24T04:00:41;5.90;1.00
21259;DHT22;10787;53.364;-1.480;2023-04-24T04:03:25;5.80;1.00
21259;DHT22;10787;53.364;-1.480;2023-04-24T04:06:10;5.70;1.00
21259;DHT22;10787;53.364;-1.480;2023-04-24T04:08:55;5.70;1.00
21259;DHT22;10787;53.364;-1.480;2023-04-24T04:11:39;5.60;1.00
21259;DHT22;10787;53.364;-1.480;2023-04-24T04:14:23;5.60;1.00
21259;DHT22;10787;53.364;-1.480;2023-04-24T04:17:08;5.50;1.00
21259;DHT22;10787;53.364;-1.480;2023-04-24T04:19:52;5.50;1.00
21259;DHT22;10787;53.364;-1.480;2023-04-24T04:22:37;5.60;1.00
21259;DHT22;10787;53.364;-1.480;2023-04-24T04:25:21;5.60;1.00
21259;DHT22;10787;53.364;-1.480;2023-04-24T04:28:07;5.60;1.00
21259;DHT22;10787;53.364;-1.480;2023-04-24T04:30:51;5.60;1.00
21259;DHT22;10787;53.364;-1.480;2023-04-24T04:33:38;5.60;1.00
21259;DHT22;10787;53.364;-1.480;2023-04-24T04:36:23;5.50;1.00
21259;DHT22;10787;53.364;-1.480;2023-04-24T04:39:08;5.40;1.00
21259;DHT22;10787;53.364;-1.480;2023-04-24T04:41:52;5.40;1.00
21259;DHT22;10787;53.364;-1.480;2023-04-24T04:44:37;5.40;1.00
21259;DHT22;10787;53.364;-1.480;2023-04-24T04:47:22;5.50;1.00
21259;DHT22;10787;53.364;-1.480;2023-04-24T04:50:10;5.50;1.00
21259;DHT22;10787;53.364;-1.480;2023-04-24T04:52:54;5.60;1.00
21259;DHT22;10787;53.364;-1.480;2023-04-24T04:55:39;5.60;1.00
21259;DHT22;10787;53.364;-1.480;2023-04-24T04:58:23;5.70;1.00
21259;DHT22;10787;53.364;-1.480;2023-04-24T05:01:08;5.70;1.00
21259;DHT22;10787;53.364;-1.480;2023-04-24T05:03:52;5.70;1.00
21259;DHT22;10787;53.364;-1.480;2023-04-24T05:06:37;5.80;1.00
21259;DHT22;10787;53.364;-1.480;2023-04-24T05:09:22;5.90;1.00
21259;DHT22;10787;53.364;-1.480;2023-04-24T05:12:06;5.90;1.00
21259;DHT22;10787;53.364;-1.480;2023-04-24T05:14:51;6.00;1.00
21259;DHT22;10787;53.364;-1.480;2023-04-24T05:17:36;6.00;1.00
21259;DHT22;10787;53.364;-1.480;2023-04-24T05:20:21;6.10;1.00
21259;DHT22;10787;53.364;-1.480;2023-04-24T05:23:05;6.10;1.00
21259;DHT22;10787;53.364;-1.480;2023-04-24T05:25:50;6.20;1.00
21259;DHT22;10787;53.364;-1.480;2023-04-24T05:28:35;6.30;1.00
21259;DHT22;10787;53.364;-1.480;2023-04-24T05:31:20;6.30;1.00
21259;DHT22;10787;53.364;-1.480;2023-04-24T05:34:05;6.40;1.00
21259;DHT22;10787;53.364;-1.480;2023-04-24T05:36:50;6.50;1.00
21259;DHT22;10787;53.364;-1.480;2023-04-24T05:39:35;6.50;1.00
21259;DHT22;10787;53.364;-1.480;2023-04-24T05:42:19;6.60;1.00
21259;DHT22;10787;53.364;-1.480;2023-04-24T05:45:05;6.70;1.00
21259;DHT22;10787;53.364;-1.480;2023-04-24T05:47:49;6.70;1.00
21259;DHT22;10787;53.364;-1.480;2023-04-24T05:50:36;6.80;1.00
21259;DHT22;10787;53.364;-1.480;2023-04-24T05:53:20;6.80;1.00
21259;DHT22;10787;53.364;-1.480;2023-04-24T05:56:05;6.90;1.00
21259;DHT22;10787;53.364;-1.480;2023-04-24T05:58:49;7.00;1.00
21259;DHT22;10787;53.364;-1.480;2023-04-24T06:01:34;7.00;1.00
21259;DHT22;10787;53.364;-1.480;2023-04-24T06:04:20;7.00;1.00
21259;DHT22;10787;53.364;-1.480;2023-04-24T06:07:04;7.10;1.00
21259;DHT22;10787;53.364;-1.480;2023-04-24T06:09:48;7.10;1.00
21259;DHT22;10787;53.364;-1.480;2023-04-24T06:12:32;7.30;1.00
21259;DHT22;10787;53.364;-1.480;2023-04-24T06:15:17;7.50;1.00
21259;DHT22;10787;53.364;-1.480;2023-04-24T06:18:02;7.70;1.00
21259;DHT22;10787;53.364;-1.480;2023-04-24T06:20:46;7.90;1.00
21259;DHT22;10787;53.364;-1.480;2023-04-24T06:23:31;7.80;1.00
21259;DHT22;10787;53.364;-1.480;2023-04-24T06:26:16;7.80;1.00
21259;DHT22;10787;53.364;-1.480;2023-04-24T06:29:01;7.70;1.00
21259;DHT22;10787;53.364;-1.480;2023-04-24T06:31:46;7.70;1.00
21259;DHT22;10787;53.364;-1.480;2023-04-24T06:34:30;7.70;1.00
21259;DHT22;10787;53.364;-1.480;2023-04-24T06:37:14;7.60;1.00
21259;DHT22;10787;53.364;-1.480;2023-04-24T06:40:00;7.50;1.00
21259;DHT22;10787;53.364;-1.480;2023-04-24T06:42:44;7.40;1.00
21259;DHT22;10787;53.364;-1.480;2023-04-24T06:45:29;7.30;1.00
21259;DHT22;10787;53.364;-1.480;2023-04-24T06:48:13;7.20;1.00
21259;DHT22;10787;53.364;-1.480;2023-04-24T06:50:57;7.20;1.00
21259;DHT22;10787;53.364;-1.480;2023-04-24T06:53:42;7.20;1.00
21259;DHT22;10787;53.364;-1.480;2023-04-24T06:56:26;7.30;1.00
21259;DHT22;10787;53.364;-1.480;2023-04-24T06:59:10;7.40;1.00
21259;DHT22;10787;53.364;-1.480;2023-04-24T07:01:55;7.50;1.00
21259;DHT22;10787;53.364;-1.480;2023-04-24T07:04:39;7.60;1.00
21259;DHT22;10787;53.364;-1.480;2023-04-24T07:07:23;7.60;1.00
21259;DHT22;10787;53.364;-1.480;2023-04-24T07:10:08;7.50;1.00
21259;DHT22;10787;53.364;-1.480;2023-04-24T07:12:52;7.50;1.00
21259;DHT22;10787;53.364;-1.480;2023-04-24T07:15:37;7.50;1.00
21259;DHT22;10787;53.364;-1.480;2023-04-24T07:18:22;7.50;1.00
21259;DHT22;10787;53.364;-1.480;2023-04-24T07:21:07;7.50;1.00
21259;DHT22;10787;53.364;-1.480;2023-04-24T07:23:52;7.60;1.00
21259;DHT22;10787;53.364;-1.480;2023-04-24T07:26:37;7.60;1.00
21259;DHT22;10787;53.364;-1.480;2023-04-24T07:29:21;7.60;1.00
21259;DHT22;10787;53.364;-1.480;2023-04-24T07:32:05;7.60;1.00
21259;DHT22;10787;53.364;-1.480;2023-04-24T07:34:50;7.60;1.00
21259;DHT22;10787;53.364;-1.480;2023-04-24T07:37:34;7.60;1.00
21259;DHT22;10787;53.364;-1.480;2023-04-24T07:40:18;7.70;1.00
21259;DHT22;10787;53.364;-1.480;2023-04-24T07:43:03;7.70;1.00
21259;DHT22;10787;53.364;-1.480;2023-04-24T07:45:47;7.80;1.00
21259;DHT22;10787;53.364;-1.480;2023-04-24T07:48:32;7.90;1.00
21259;DHT22;10787;53.364;-1.480;2023-04-24T07:51:16;8.10;1.00
21259;DHT22;10787;53.364;-1.480;2023-04-24T07:54:00;8.20;1.00
21259;DHT22;10787;53.364;-1.480;2023-04-24T07:56:45;8.20;1.00
21259;DHT22;10787;53.364;-1.480;2023-04-24T07:59:29;8.30;1.00
21259;DHT22;10787;53.364;-1.480;2023-04-24T08:02:13;8.30;1.00
21259;DHT22;10787;53.364;-1.480;2023-04-24T08:04:58;8.30;1.00
21259;DHT22;10787;53.364;-1.480;2023-04-24T08:07:43;8.40;1.00
21259;DHT22;10787;53.364;-1.480;2023-04-24T08:10:29;8.60;1.00
21259;DHT22;10787;53.364;-1.480;2023-04-24T08:13:14;8.70;1.00
21259;DHT22;10787;53.364;-1.480;2023-04-24T08:15:58;8.70;1.00
21259;DHT22;10787;53.364;-1.480;2023-04-24T08:18:42;8.80;1.00
21259;DHT22;10787;53.364;-1.480;2023-04-24T08:21:26;8.90;1.00
21259;DHT22;10787;53.364;-1.480;2023-04-24T08:24:11;9.00;1.00
21259;DHT22;10787;53.364;-1.480;2023-04-24T08:26:55;9.10;1.00
21259;DHT22;10787;53.364;-1.480;2023-04-24T08:29:41;9.10;1.00
21259;DHT22;10787;53.364;-1.480;2023-04-24T08:32:26;9.20;1.00
21259;DHT22;10787;53.364;-1.480;2023-04-24T08:35:12;9.40;1.00
21259;DHT22;10787;53.364;-1.480;2023-04-24T08:37:57;9.60;1.00
21259;DHT22;10787;53.364;-1.480;2023-04-24T08:40:41;9.80;1.00
21259;DHT22;10787;53.364;-1.480;2023-04-24T08:43:26;10.00;1.00
21259;DHT22;10787;53.364;-1.480;2023-04-24T08:46:12;10.00;1.00
21259;DHT22;10787;53.364;-1.480;2023-04-24T08:48:57;10.00;1.00
21259;DHT22;10787;53.364;-1.480;2023-04-24T08:51:42;10.10;1.00
21259;DHT22;10787;53.364;-1.480;2023-04-24T08:54:28;9.90;1.00
21259;DHT22;10787;53.364;-1.480;2023-04-24T08:57:14;9.80;1.00
21259;DHT22;10787;53.364;-1.480;2023-04-24T08:59:59;9.70;1.00
21259;DHT22;10787;53.364;-1.480;2023-04-24T09:02:45;9.70;1.00
21259;DHT22;10787;53.364;-1.480;2023-04-24T09:05:31;9.70;1.00
21259;DHT22;10787;53.364;-1.480;2023-04-24T09:08:19;9.80;1.00
21259;DHT22;10787;53.364;-1.480;2023-04-24T09:11:04;9.90;1.00
21259;DHT22;10787;53.364;-1.480;2023-04-24T09:13:49;10.10;1.00
21259;DHT22;10787;53.364;-1.480;2023-04-24T09:16:34;10.20;1.00
21259;DHT22;10787;53.364;-1.480;2023-04-24T09:19:18;10.30;1.00
21259;DHT22;10787;53.364;-1.480;2023-04-24T09:22:07;10.40;1.00
21259;DHT22;10787;53.364;-1.480;2023-04-24T09:25:05;10.50;1.00
21259;DHT22;10787;53.364;-1.480;2023-04-24T09:27:53;10.40;1.00
21259;DHT22;10787;53.364;-1.480;2023-04-24T09:30:38;10.30;1.00
21259;DHT22;10787;53.364;-1.480;2023-04-24T09:33:22;10.20;1.00
21259;DHT22;10787;53.364;-1.480;2023-04-24T09:36:06;10.30;1.00
21259;DHT22;10787;53.364;-1.480;2023-04-24T09:38:57;10.20;1.00
21259;DHT22;10787;53.364;-1.480;2023-04-24T09:41:53;10.20;1.00
21259;DHT22;10787;53.364;-1.480;2023-04-24T09:44:37;10.30;1.00
21259;DHT22;10787;53.364;-1.480;2023-04-24T09:47:21;10.30;1.00
21259;DHT22;10787;53.364;-1.480;2023-04-24T09:50:13;10.40;1.00
21259;DHT22;10787;53.364;-1.480;2023-04-24T09:52:59;10.60;1.00
21259;DHT22;10787;53.364;-1.480;2023-04-24T09:55:45;10.50;1.00
21259;DHT22;10787;53.364;-1.480;2023-04-24T09:58:32;10.50;1.00
21259;DHT22;10787;53.364;-1.480;2023-04-24T10:01:16;10.50;1.00
21259;DHT22;10787;53.364;-1.480;2023-04-24T10:04:01;10.60;1.00
21259;DHT22;10787;53.364;-1.480;2023-04-24T10:06:46;10.60;1.00
21259;DHT22;10787;53.364;-1.480;2023-04-24T10:09:31;10.80;1.00
21259;DHT22;10787;53.364;-1.480;2023-04-24T10:12:16;11.00;1.00
21259;DHT22;10787;53.364;-1.480;2023-04-24T10:15:01;11.40;1.00
21259;DHT22;10787;53.364;-1.480;2023-04-24T10:17:50;11.70;1.00
21259;DHT22;10787;53.364;-1.480;2023-04-24T10:20:39;11.70;1.00
21259;DHT22;10787;53.364;-1.480;2023-04-24T10:23:25;11.80;1.00
21259;DHT22;10787;53.364;-1.480;2023-04-24T10:26:10;11.70;1.00
21259;DHT22;10787;53.364;-1.480;2023-04-24T10:29:01;11.80;1.00
21259;DHT22;10787;53.364;-1.480;2023-04-24T10:31:45;11.90;1.00
21259;DHT22;10787;53.364;-1.480;2023-04-24T10:34:30;11.90;1.00
21259;DHT22;10787;53.364;-1.480;2023-04-24T10:37:14;11.90;1.00
21259;DHT22;10787;53.364;-1.480;2023-04-24T10:39:59;11.80;1.00
21259;DHT22;10787;53.364;-1.480;2023-04-24T10:42:47;12.10;1.00
21259;DHT22;10787;53.364;-1.480;2023-04-24T10:45:32;12.40;1.00
21259;DHT22;10787;53.364;-1.480;2023-04-24T10:51:49;12.20;1.00
21259;DHT22;10787;53.364;-1.480;2023-04-24T10:55:01;12.20;1.00
21259;DHT22;10787;53.364;-1.480;2023-04-24T10:58:03;12.20;1.00
21259;DHT22;10787;53.364;-1.480;2023-04-24T11:00:56;12.10;1.00
21259;DHT22;10787;53.364;-1.480;2023-04-24T11:03:51;12.10;1.00
21259;DHT22;10787;53.364;-1.480;2023-04-24T11:06:38;12.00;1.00
21259;DHT22;10787;53.364;-1.480;2023-04-24T11:09:27;12.30;1.00
21259;DHT22;10787;53.364;-1.480;2023-04-24T11:12:12;12.60;1.00
21259;DHT22;10787;53.364;-1.480;2023-04-24T11:14:59;12.70;1.00
21259;DHT22;10787;53.364;-1.480;2023-04-24T11:17:44;12.80;1.00
21259;DHT22;10787;53.364;-1.480;2023-04-24T11:20:28;12.70;1.00
21259;DHT22;10787;53.364;-1.480;2023-04-24T11:23:13;12.40;1.00
21259;DHT22;10787;53.364;-1.480;2023-04-24T11:26:31;12.10;1.00
21259;DHT22;10787;53.364;-1.480;2023-04-24T11:29:21;11.80;1.00
21259;DHT22;10787;53.364;-1.480;2023-04-24T11:37:57;11.60;1.00
21259;DHT22;10787;53.364;-1.480;2023-04-24T11:40:43;11.80;1.00
21259;DHT22;10787;53.364;-1.480;2023-04-24T11:43:30;12.10;1.00
21259;DHT22;10787;53.364;-1.480;2023-04-24T11:46:17;12.30;1.00
21259;DHT22;10787;53.364;-1.480;2023-04-24T11:49:01;12.50;1.00
21259;DHT22;10787;53.364;-1.480;2023-04-24T11:51:45;12.70;1.00
21259;DHT22;10787;53.364;-1.480;2023-04-24T11:54:29;12.40;1.00
21259;DHT22;10787;53.364;-1.480;2023-04-24T11:57:14;12.20;1.00
21259;DHT22;10787;53.364;-1.480;2023-04-24T11:59:59;11.80;1.00
21259;DHT22;10787;53.364;-1.480;2023-04-24T12:02:44;11.60;1.00
21259;DHT22;10787;53.364;-1.480;2023-04-24T12:05:29;11.40;1.00
21259;DHT22;10787;53.364;-1.480;2023-04-24T12:08:33;11.30;1.00
21259;DHT22;10787;53.364;-1.480;2023-04-24T12:11:17;11.20;1.00
21259;DHT22;10787;53.364;-1.480;2023-04-24T12:14:12;11.20;1.00
21259;DHT22;10787;53.364;-1.480;2023-04-24T12:16:56;11.20;1.00
21259;DHT22;10787;53.364;-1.480;2023-04-24T12:19:50;11.30;1.00
21259;DHT22;10787;53.364;-1.480;2023-04-24T12:22:50;11.40;1.00
21259;DHT22;10787;53.364;-1.480;2023-04-24T12:25:34;11.70;1.00
21259;DHT22;10787;53.364;-1.480;2023-04-24T12:28:38;12.00;1.00
21259;DHT22;10787;53.364;-1.480;2023-04-24T12:31:23;12.70;1.00
21259;DHT22;10787;53.364;-1.480;2023-04-24T12:34:37;13.10;1.00
21259;DHT22;10787;53.364;-1.480;2023-04-24T12:37:25;13.60;1.00
21259;DHT22;10787;53.364;-1.480;2023-04-24T12:40:11;13.50;1.00
21259;DHT22;10787;53.364;-1.480;2023-04-24T12:43:16;13.30;1.00
21259;DHT22;10787;53.364;-1.480;2023-04-24T12:46:01;13.10;1.00
21259;DHT22;10787;53.364;-1.480;2023-04-24T12:48:45;12.90;1.00
21259;DHT22;10787;53.364;-1.480;2023-04-24T12:51:29;12.70;1.00
21259;DHT22;10787;53.364;-1.480;2023-04-24T12:54:14;12.70;1.00
21259;DHT22;10787;53.364;-1.480;2023-04-24T12:56:58;12.60;1.00
21259;DHT22;10787;53.364;-1.480;2023-04-24T12:59:42;12.60;1.00
21259;DHT22;10787;53.364;-1.480;2023-04-24T13:02:29;12.50;1.00
21259;DHT22;10787;53.364;-1.480;2023-04-24T13:05:15;12.70;1.00
21259;DHT22;10787;53.364;-1.480;2023-04-24T13:07:59;13.30;1.00
21259;DHT22;10787;53.364;-1.480;2023-04-24T13:10:44;13.60;1.00
21259;DHT22;10787;53.364;-1.480;2023-04-24T13:13:29;13.80;1.00
21259;DHT22;10787;53.364;-1.480;2023-04-24T13:16:13;13.80;1.00
21259;DHT22;10787;53.364;-1.480;2023-04-24T13:18:57;13.40;1.00
21259;DHT22;10787;53.364;-1.480;2023-04-24T13:21:42;13.00;1.00
21259;DHT22;10787;53.364;-1.480;2023-04-24T13:24:26;12.60;1.00
21259;DHT22;10787;53.364;-1.480;2023-04-24T13:27:11;12.20;1.00
21259;DHT22;10787;53.364;-1.480;2023-04-24T13:29:55;12.00;1.00
21259;DHT22;10787;53.364;-1.480;2023-04-24T13:32:39;11.90;1.00
21259;DHT22;10787;53.364;-1.480;2023-04-24T13:35:24;11.90;1.00
21259;DHT22;10787;53.364;-1.480;2023-04-24T13:38:08;11.90;1.00
21259;DHT22;10787;53.364;-1.480;2023-04-24T13:40:52;11.80;1.00
21259;DHT22;10787;53.364;-1.480;2023-04-24T13:43:37;11.70;1.00
21259;DHT22;10787;53.364;-1.480;2023-04-24T13:46:22;11.60;1.00
21259;DHT22;10787;53.364;-1.480;2023-04-24T13:49:06;11.40;1.00
21259;DHT22;10787;53.364;-1.480;2023-04-24T13:51:51;11.20;1.00
21259;DHT22;10787;53.364;-1.480;2023-04-24T13:54:35;10.80;1.00
21259;DHT22;10787;53.364;-1.480;2023-04-24T13:57:19;10.50;1.00
21259;DHT22;10787;53.364;-1.480;2023-04-24T14:00:05;10.30;1.00
21259;DHT22;10787;53.364;-1.480;2023-04-24T14:02:54;10.10;1.00
21259;DHT22;10787;53.364;-1.480;2023-04-24T14:05:38;10.00;1.00
21259;DHT22;10787;53.364;-1.480;2023-04-24T14:08:22;9.90;1.00
21259;DHT22;10787;53.364;-1.480;2023-04-24T14:11:07;9.80;1.00
21259;DHT22;10787;53.364;-1.480;2023-04-24T14:13:51;9.60;1.00
21259;DHT22;10787;53.364;-1.480;2023-04-24T14:16:36;9.60;1.00
21259;DHT22;10787;53.364;-1.480;2023-04-24T14:19:21;9.60;1.00
21259;DHT22;10787;53.364;-1.480;2023-04-24T14:22:05;9.50;1.00
21259;DHT22;10787;53.364;-1.480;2023-04-24T14:24:49;9.50;1.00
21259;DHT22;10787;53.364;-1.480;2023-04-24T14:27:33;9.50;1.00
21259;DHT22;10787;53.364;-1.480;2023-04-24T14:30:19;9.40;1.00
21259;DHT22;10787;53.364;-1.480;2023-04-24T14:33:03;9.30;1.00
21259;DHT22;10787;53.364;-1.480;2023-04-24T14:35:48;9.40;1.00
21259;DHT22;10787;53.364;-1.480;2023-04-24T14:38:32;9.50;1.00
21259;DHT22;10787;53.364;-1.480;2023-04-24T14:41:16;9.70;1.00
21259;DHT22;10787;53.364;-1.480;2023-04-24T14:44:01;9.80;1.00
21259;DHT22;10787;53.364;-1.480;2023-04-24T14:46:47;9.90;1.00
21259;DHT22;10787;53.364;-1.480;2023-04-24T14:49:31;10.00;1.00
21259;DHT22;10787;53.364;-1.480;2023-04-24T14:52:16;10.10;1.00
21259;DHT22;10787;53.364;-1.480;2023-04-24T14:55:00;10.20;1.00
21259;DHT22;10787;53.364;-1.480;2023-04-24T14:57:44;10.40;1.00
21259;DHT22;10787;53.364;-1.480;2023-04-24T15:00:28;10.60;1.00
21259;DHT22;10787;53.364;-1.480;2023-04-24T15:03:13;10.70;1.00
21259;DHT22;10787;53.364;-1.480;2023-04-24T15:05:57;10.70;1.00
21259;DHT22;10787;53.364;-1.480;2023-04-24T15:08:42;10.70;1.00
21259;DHT22;10787;53.364;-1.480;2023-04-24T15:11:27;10.70;1.00
21259;DHT22;10787;53.364;-1.480;2023-04-24T15:14:11;10.80;1.00
21259;DHT22;10787;53.364;-1.480;2023-04-24T15:16:55;10.80;1.00
21259;DHT22;10787;53.364;-1.480;2023-04-24T15:19:39;10.90;1.00
21259;DHT22;10787;53.364;-1.480;2023-04-24T15:22:24;11.00;1.00
21259;DHT22;10787;53.364;-1.480;2023-04-24T15:25:10;11.00;1.00
21259;DHT22;10787;53.364;-1.480;2023-04-24T15:27:54;11.10;1.00
21259;DHT22;10787;53.364;-1.480;2023-04-24T15:30:38;11.20;1.00
21259;DHT22;10787;53.364;-1.480;2023-04-24T15:33:23;11.30;1.00
21259;DHT22;10787;53.364;-1.480;2023-04-24T15:36:08;11.60;1.00
21259;DHT22;10787;53.364;-1.480;2023-04-24T15:38:52;11.80;1.00
21259;DHT22;10787;53.364;-1.480;2023-04-24T15:41:36;12.30;1.00
21259;DHT22;10787;53.364;-1.480;2023-04-24T15:44:21;12.30;1.00
21259;DHT22;10787;53.364;-1.480;2023-04-24T15:47:05;12.00;1.00
21259;DHT22;10787;53.364;-1.480;2023-04-24T15:49:51;11.80;1.00
21259;DHT22;10787;53.364;-1.480;2023-04-24T15:52:37;11.40;1.00
21259;DHT22;10787;53.364;-1.480;2023-04-24T15:55:21;11.00;1.00
21259;DHT22;10787;53.364;-1.480;2023-04-24T15:58:05;10.50;1.00
21259;DHT22;10787;53.364;-1.480;2023-04-24T16:00:49;10.20;1.00
21259;DHT22;10787;53.364;-1.480;2023-04-24T16:03:34;10.00;1.00
21259;DHT22;10787;53.364;-1.480;2023-04-24T16:06:18;9.90;1.00
21259;DHT22;10787;53.364;-1.480;2023-04-24T16:09:03;9.90;1.00
21259;DHT22;10787;53.364;-1.480;2023-04-24T16:11:48;9.90;1.00
21259;DHT22;10787;53.364;-1.480;2023-04-24T16:14:32;9.90;1.00
21259;DHT22;10787;53.364;-1.480;2023-04-24T16:17:17;10.10;1.00
21259;DHT22;10787;53.364;-1.480;2023-04-24T16:20:03;10.20;1.00
21259;DHT22;10787;53.364;-1.480;2023-04-24T16:22:48;10.30;1.00
21259;DHT22;10787;53.364;-1.480;2023-04-24T16:25:33;10.20;1.00
21259;DHT22;10787;53.364;-1.480;2023-04-24T16:28:17;10.00;1.00
21259;DHT22;10787;53.364;-1.480;2023-04-24T16:31:02;10.00;1.00
21259;DHT22;10787;53.364;-1.480;2023-04-24T16:33:46;9.80;1.00
21259;DHT22;10787;53.364;-1.480;2023-04-24T16:36:31;9.80;1.00
21259;DHT22;10787;53.364;-1.480;2023-04-24T16:39:15;9.80;1.00
21259;DHT22;10787;53.364;-1.480;2023-04-24T16:42:00;9.80;1.00
21259;DHT22;10787;53.364;-1.480;2023-04-24T16:44:46;9.90;1.00
21259;DHT22;10787;53.364;-1.480;2023-04-24T16:47:30;10.10;1.00
21259;DHT22;10787;53.364;-1.480;2023-04-24T16:50:15;10.20;1.00
21259;DHT22;10787;53.364;-1.480;2023-04-24T16:52:59;10.40;1.00
21259;DHT22;10787;53.364;-1.480;2023-04-24T16:55:44;10.60;1.00
21259;DHT22;10787;53.364;-1.480;2023-04-24T16:58:30;10.90;1.00
21259;DHT22;10787;53.364;-1.480;2023-04-24T17:01:14;11.20;1.00
21259;DHT22;10787;53.364;-1.480;2023-04-24T17:03:58;11.40;1.00
21259;DHT22;10787;53.364;-1.480;2023-04-24T17:06:43;11.50;1.00
21259;DHT22;10787;53.364;-1.480;2023-04-24T17:09:28;12.00;1.00
21259;DHT22;10787;53.364;-1.480;2023-04-24T17:12:12;12.40;1.00
21259;DHT22;10787;53.364;-1.480;2023-04-24T17:14:56;12.30;1.00
21259;DHT22;10787;53.364;-1.480;2023-04-24T17:17:40;12.10;1.00
21259;DHT22;10787;53.364;-1.480;2023-04-24T17:20:27;11.70;1.00
21259;DHT22;10787;53.364;-1.480;2023-04-24T17:23:11;11.30;1.00
21259;DHT22;10787;53.364;-1.480;2023-04-24T17:25:56;10.70;1.00
21259;DHT22;10787;53.364;-1.480;2023-04-24T17:28:41;10.40;1.00
21259;DHT22;10787;53.364;-1.480;2023-04-24T17:31:25;10.10;1.00
21259;DHT22;10787;53.364;-1.480;2023-04-24T17:34:10;9.70;1.00
21259;DHT22;10787;53.364;-1.480;2023-04-24T17:36:54;9.60;1.00
21259;DHT22;10787;53.364;-1.480;2023-04-24T17:39:38;9.40;1.00
21259;DHT22;10787;53.364;-1.480;2023-04-24T17:42:22;9.20;1.00
21259;DHT22;10787;53.364;-1.480;2023-04-24T17:45:07;9.20;1.00